Time;durP1;ratioP1;P1;durP2;ratioP2;P2;SDS_P1;SDS_P2;PMS_P1;PMS_P2;Temp;Humidity;BMP_temperature;BMP_pressure;BME280_temperature;BME280_humidity;BME280_pressure;Samples;Min_cycle;Max_cycle;Signal;HPM_P1;HPM_P2
2021/11/01 00:00:40;;;;;;;;;;;15.40;99.90;;;;;;2069072;28;2016;-61
2021/11/01 00:01:59;;;;;;;;;;;15.40;99.90;;;;;;2078670;28;920;-56
2021/11/01 00:03:19;;;;;;;;;;;15.40;99.90;;;;;;2068910;28;1137;-56
2021/11/01 00:04:40;;;;;;;;;;;15.40;99.90;;;;;;2066745;28;1409;-60
2021/11/01 00:05:59;;;;;;;;;;;15.40;99.90;;;;;;2073350;28;717;-57
2021/11/01 00:07:18;;;;;;;;;;;15.40;99.90;;;;;;2064963;28;716;-59
2021/11/01 00:08:37;;;;;;;;;;;15.40;99.90;;;;;;2056097;28;1335;-59
2021/11/01 00:09:56;;;;;;;;;;;15.30;99.90;;;;;;2060537;28;813;-61
2021/11/01 00:11:16;;;;;;;;;;;15.30;99.90;;;;;;2065779;28;770;-59
2021/11/01 00:12:35;;;;;;;;;;;15.40;99.90;;;;;;2064133;28;779;-57
2021/11/01 00:13:54;;;;;;;;;;;15.30;99.90;;;;;;2065496;28;793;-59
2021/11/01 00:15:14;;;;;;;;;;;15.30;99.90;;;;;;2069429;28;1482;-59
2021/11/01 00:16:34;;;;;;;;;;;15.30;99.90;;;;;;2069410;28;1559;-59
2021/11/01 00:17:53;;;;;;;;;;;15.30;99.90;;;;;;2065064;28;1587;-59
2021/11/01 00:19:13;;;;;;;;;;;15.30;99.90;;;;;;2064797;28;768;-58
2021/11/01 00:20:32;;;;;;;;;;;15.30;99.90;;;;;;2064031;28;763;-58
2021/11/01 00:21:51;;;;;;;;;;;15.30;99.90;;;;;;2054506;28;814;-59
2021/11/01 00:23:11;;;;;;;;;;;15.30;99.90;;;;;;2061220;28;755;-60
2021/11/01 00:24:30;;;;;;;;;;;15.30;99.90;;;;;;2057796;28;1827;-60
2021/11/01 00:25:50;;;;;;;;;;;15.30;99.90;;;;;;2068580;28;909;-59
2021/11/01 00:27:10;;;;;;;;;;;15.30;99.90;;;;;;2070582;28;1640;-59
2021/11/01 00:28:29;;;;;;;;;;;15.30;99.90;;;;;;2081524;28;1385;-57
2021/11/01 00:29:48;;;;;;;;;;;15.30;99.90;;;;;;2070218;28;767;-58
2021/11/01 00:31:07;;;;;;;;;;;15.30;99.90;;;;;;2075824;28;756;-57
2021/11/01 00:32:26;;;;;;;;;;;15.30;99.90;;;;;;2081015;28;768;-61
2021/11/01 00:33:46;;;;;;;;;;;15.30;99.90;;;;;;2081438;28;733;-59
2021/11/01 00:35:05;;;;;;;;;;;15.30;99.90;;;;;;2078473;28;731;-59
2021/11/01 00:36:24;;;;;;;;;;;15.30;99.90;;;;;;2068360;28;1399;-59
2021/11/01 00:37:44;;;;;;;;;;;15.30;99.90;;;;;;2061588;28;1945;-61
2021/11/01 00:39:04;;;;;;;;;;;15.30;99.90;;;;;;2056783;28;767;-58
2021/11/01 00:40:23;;;;;;;;;;;15.30;99.90;;;;;;2061950;28;762;-57
2021/11/01 00:41:42;;;;;;;;;;;15.30;99.90;;;;;;2065310;28;749;-59
2021/11/01 00:43:03;;;;;;;;;;;15.30;99.90;;;;;;2064525;28;1720;-59
2021/11/01 00:44:22;;;;;;;;;;;15.30;99.90;;;;;;2068512;28;736;-55
2021/11/01 00:45:41;;;;;;;;;;;15.30;99.90;;;;;;2061561;28;813;-58
2021/11/01 00:47:00;;;;;;;;;;;15.30;99.90;;;;;;2062485;28;1928;-59
2021/11/01 00:48:20;;;;;;;;;;;15.30;99.90;;;;;;2055597;28;1416;-59
2021/11/01 00:49:39;;;;;;;;;;;15.30;99.90;;;;;;2059597;28;787;-60
2021/11/01 00:50:58;;;;;;;;;;;15.30;99.90;;;;;;2057631;28;1435;-55
2021/11/01 00:52:21;;;;;;;;;;;15.30;99.90;;;;;;2062251;28;2035;-57
2021/11/01 00:53:47;;;;;;;;;;;15.20;99.90;;;;;;2063695;28;749;-60
2021/11/01 00:55:10;;;;;;;;;;;15.30;99.90;;;;;;2066577;28;1108;-58
2021/11/01 00:56:29;;;;;;;;;;;15.20;99.90;;;;;;2065062;28;1585;-60
2021/11/01 00:57:50;;;;;;;;;;;15.30;99.90;;;;;;2060789;28;1440;-56
2021/11/01 00:59:09;;;;;;;;;;;15.20;99.90;;;;;;2061766;28;714;-58
2021/11/01 01:00:29;;;;;;;;;;;15.20;99.90;;;;;;2069779;28;748;-59
2021/11/01 01:01:48;;;;;;;;;;;15.20;99.90;;;;;;2073310;28;719;-59
2021/11/01 01:03:11;;;;;;;;;;;15.20;99.90;;;;;;2066317;28;1576;-58
2021/11/01 01:04:30;;;;;;;;;;;15.20;99.90;;;;;;2064368;28;725;-59
2021/11/01 01:05:50;;;;;;;;;;;15.20;99.90;;;;;;2064844;28;702;-57
2021/11/01 01:07:09;;;;;;;;;;;15.20;99.90;;;;;;2070454;28;1666;-56
2021/11/01 01:08:28;;;;;;;;;;;15.20;99.90;;;;;;2072810;28;1455;-60
2021/11/01 01:09:49;;;;;;;;;;;15.20;99.90;;;;;;2064273;28;738;-58
2021/11/01 01:11:08;;;;;;;;;;;15.20;99.90;;;;;;2061838;28;693;-60
2021/11/01 01:12:27;;;;;;;;;;;15.20;99.90;;;;;;2056460;28;728;-58
2021/11/01 01:13:47;;;;;;;;;;;15.20;99.90;;;;;;2056684;28;734;-57
2021/11/01 01:15:06;;;;;;;;;;;15.20;99.90;;;;;;2056652;28;726;-56
2021/11/01 01:16:26;;;;;;;;;;;15.20;99.90;;;;;;2061881;28;1633;-58
2021/11/01 01:17:46;;;;;;;;;;;15.20;99.90;;;;;;2064472;28;717;-58
2021/11/01 01:19:14;;;;;;;;;;;15.20;99.90;;;;;;2066804;28;821;-59
2021/11/01 01:20:33;;;;;;;;;;;15.20;99.90;;;;;;2074106;28;1180;-58
2021/11/01 01:23:41;;;;;;;;;;;15.20;99.90;;;;;;2068324;28;1316;-60
2021/11/01 01:25:04;;;;;;;;;;;15.20;99.90;;;;;;2068164;28;1131;-59
2021/11/01 01:26:26;;;;;;;;;;;15.20;99.90;;;;;;2075227;28;1109;-60
2021/11/01 01:27:45;;;;;;;;;;;15.20;99.90;;;;;;2079991;28;1183;-58
2021/11/01 01:29:05;;;;;;;;;;;15.20;99.90;;;;;;2081214;28;742;-59
2021/11/01 01:30:25;;;;;;;;;;;15.20;99.90;;;;;;2081367;28;708;-57
2021/11/01 01:31:44;;;;;;;;;;;15.20;99.90;;;;;;2081384;28;709;-59
2021/11/01 01:33:03;;;;;;;;;;;15.20;99.90;;;;;;2081418;28;703;-57
2021/11/01 01:34:23;;;;;;;;;;;15.20;99.90;;;;;;2064273;28;723;-60
2021/11/01 01:35:43;;;;;;;;;;;15.20;99.90;;;;;;2066268;28;761;-58
2021/11/01 01:37:02;;;;;;;;;;;15.20;99.90;;;;;;2071285;28;1497;-57
2021/11/01 01:38:22;;;;;;;;;;;15.20;99.90;;;;;;2070294;28;1483;-58
2021/11/01 01:39:41;;;;;;;;;;;15.20;99.90;;;;;;2078340;28;1974;-57
2021/11/01 01:41:10;;;;;;;;;;;15.10;99.90;;;;;;2074186;28;731;-58
2021/11/01 01:42:29;;;;;;;;;;;15.20;99.90;;;;;;2080865;28;733;-57
2021/11/01 01:43:50;;;;;;;;;;;15.20;99.90;;;;;;2082928;28;780;-58
2021/11/01 01:45:09;;;;;;;;;;;15.10;99.90;;;;;;2082894;28;787;-58
2021/11/01 01:46:29;;;;;;;;;;;15.10;99.90;;;;;;2081910;28;1322;-60
2021/11/01 01:47:48;;;;;;;;;;;15.10;99.90;;;;;;2066556;28;1390;-57
2021/11/01 01:49:07;;;;;;;;;;;15.10;99.90;;;;;;2066038;28;698;-60
2021/11/01 01:50:26;;;;;;;;;;;15.10;99.90;;;;;;2066245;28;719;-58
2021/11/01 01:51:45;;;;;;;;;;;15.10;99.90;;;;;;2066643;28;791;-58
2021/11/01 01:53:05;;;;;;;;;;;15.10;99.90;;;;;;2066453;28;710;-57
2021/11/01 01:54:24;;;;;;;;;;;15.10;99.90;;;;;;2071208;28;719;-59
2021/11/01 01:55:43;;;;;;;;;;;15.10;99.90;;;;;;2082107;28;1044;-59
2021/11/01 01:57:03;;;;;;;;;;;15.10;99.90;;;;;;2064377;28;1248;-59
2021/11/01 01:58:23;;;;;;;;;;;15.10;99.90;;;;;;2078890;28;1361;-60
2021/11/01 01:59:44;;;;;;;;;;;15.10;99.90;;;;;;2082401;28;1973;-59
2021/11/01 02:02:24;;;;;;;;;;;15.10;99.90;;;;;;2062675;28;666;-59
2021/11/01 02:03:45;;;;;;;;;;;15.20;99.90;;;;;;2065888;28;651;-57
2021/11/01 02:05:05;;;;;;;;;;;15.10;99.90;;;;;;2071453;28;1398;-60
2021/11/01 02:06:31;;;;;;;;;;;15.10;99.90;;;;;;2057197;28;639;-60
2021/11/01 02:07:54;;;;;;;;;;;15.10;99.90;;;;;;2060620;28;1451;-59
2021/11/01 02:09:42;;;;;;;;;;;15.10;99.90;;;;;;2057202;28;682;-58
2021/11/01 02:11:08;;;;;;;;;;;15.10;99.90;;;;;;2066805;28;1578;-58
2021/11/01 02:12:27;;;;;;;;;;;15.10;99.90;;;;;;2072073;28;1332;-60
2021/11/01 02:13:49;;;;;;;;;;;15.10;99.90;;;;;;2073528;28;590;-60
2021/11/01 02:15:26;;;;;;;;;;;15.10;99.90;;;;;;2065540;28;682;-59
2021/11/01 02:16:47;;;;;;;;;;;15.10;99.90;;;;;;2072768;28;630;-59
2021/11/01 02:18:06;;;;;;;;;;;15.10;99.90;;;;;;2073450;28;1408;-59
2021/11/01 02:19:27;;;;;;;;;;;15.10;99.90;;;;;;2074292;28;723;-59
2021/11/01 02:21:05;;;;;;;;;;;15.10;99.90;;;;;;2073969;28;715;-58
2021/11/01 02:22:43;;;;;;;;;;;15.10;99.90;;;;;;2066547;28;725;-58
2021/11/01 02:24:07;;;;;;;;;;;15.10;99.90;;;;;;2068409;28;939;-59
2021/11/01 02:25:31;;;;;;;;;;;15.10;99.90;;;;;;2079637;28;980;-60
2021/11/01 02:26:51;;;;;;;;;;;15.10;99.90;;;;;;2065508;28;941;-59
2021/11/01 02:28:20;;;;;;;;;;;15.10;99.90;;;;;;2079428;28;1408;-62
2021/11/01 02:29:41;;;;;;;;;;;15.10;99.90;;;;;;2073923;28;711;-58
2021/11/01 02:31:01;;;;;;;;;;;15.10;99.90;;;;;;2055234;28;1688;-57
2021/11/01 02:32:20;;;;;;;;;;;15.10;99.90;;;;;;2062331;28;740;-59
2021/11/01 02:33:40;;;;;;;;;;;15.10;99.90;;;;;;2070643;28;727;-60
2021/11/01 02:34:59;;;;;;;;;;;15.10;99.90;;;;;;2065765;28;686;-56
2021/11/01 02:36:19;;;;;;;;;;;15.10;99.90;;;;;;2061766;28;763;-60
2021/11/01 02:37:39;;;;;;;;;;;15.10;99.90;;;;;;2070822;28;1062;-60
2021/11/01 02:38:58;;;;;;;;;;;15.10;99.90;;;;;;2067938;28;1422;-58
2021/11/01 02:40:17;;;;;;;;;;;15.10;99.90;;;;;;2062520;28;1910;-57
2021/11/01 02:41:37;;;;;;;;;;;15.10;99.90;;;;;;2070609;28;1642;-59
2021/11/01 02:42:57;;;;;;;;;;;15.10;99.90;;;;;;2081893;28;1065;-55
2021/11/01 02:44:16;;;;;;;;;;;15.10;99.90;;;;;;2081990;28;735;-59
2021/11/01 02:45:35;;;;;;;;;;;15.10;99.90;;;;;;2082289;28;683;-60
2021/11/01 02:46:55;;;;;;;;;;;15.10;99.90;;;;;;2072956;28;753;-57
2021/11/01 02:48:14;;;;;;;;;;;15.10;99.90;;;;;;2079009;28;1447;-59
2021/11/01 02:49:33;;;;;;;;;;;15.10;99.90;;;;;;2073556;28;744;-57
2021/11/01 02:50:52;;;;;;;;;;;15.10;99.90;;;;;;2077679;28;707;-61
2021/11/01 02:52:11;;;;;;;;;;;15.10;99.90;;;;;;2067517;28;1776;-56
2021/11/01 02:53:31;;;;;;;;;;;15.10;99.90;;;;;;2065940;28;707;-60
2021/11/01 02:54:51;;;;;;;;;;;15.10;99.90;;;;;;2073263;28;1320;-59
2021/11/01 02:56:11;;;;;;;;;;;15.10;99.90;;;;;;2078598;28;1145;-57
2021/11/01 02:57:30;;;;;;;;;;;15.10;99.90;;;;;;2062956;28;1214;-60
2021/11/01 02:58:49;;;;;;;;;;;15.10;99.90;;;;;;2061952;28;1817;-58
2021/11/01 03:00:09;;;;;;;;;;;15.10;99.90;;;;;;2070470;28;1969;-58
2021/11/01 03:01:30;;;;;;;;;;;15.10;99.90;;;;;;2057177;28;818;-59
2021/11/01 03:02:49;;;;;;;;;;;15.10;99.90;;;;;;2061917;28;770;-58
2021/11/01 03:04:08;;;;;;;;;;;15.10;99.90;;;;;;2065000;28;1459;-57
2021/11/01 03:05:30;;;;;;;;;;;15.00;99.90;;;;;;2065140;28;748;-59
2021/11/01 03:06:49;;;;;;;;;;;15.00;99.90;;;;;;2056211;28;1964;-59
2021/11/01 03:08:08;;;;;;;;;;;15.00;99.90;;;;;;2063704;28;1450;-60
2021/11/01 03:09:28;;;;;;;;;;;15.00;99.90;;;;;;2056395;28;785;-59
2021/11/01 03:10:52;;;;;;;;;;;15.00;99.90;;;;;;2067138;28;740;-59
2021/11/01 03:12:11;;;;;;;;;;;15.00;99.90;;;;;;2054715;28;771;-59
2021/11/01 03:13:31;;;;;;;;;;;15.10;99.90;;;;;;2067708;28;726;-56
2021/11/01 03:14:52;;;;;;;;;;;15.00;99.90;;;;;;2065512;28;700;-58
2021/11/01 03:16:12;;;;;;;;;;;15.00;99.90;;;;;;2069878;28;1512;-55
2021/11/01 03:17:32;;;;;;;;;;;15.00;99.90;;;;;;2057376;28;797;-59
2021/11/01 03:18:57;;;;;;;;;;;15.00;99.90;;;;;;2070513;28;1584;-59
2021/11/01 03:20:18;;;;;;;;;;;15.00;99.90;;;;;;2056808;28;1907;-58
2021/11/01 03:21:39;;;;;;;;;;;15.00;99.90;;;;;;2060177;28;714;-57
2021/11/01 03:23:07;;;;;;;;;;;15.00;99.90;;;;;;2065301;28;756;-60
2021/11/01 03:24:26;;;;;;;;;;;15.00;99.90;;;;;;2071805;28;756;-60
2021/11/01 03:25:45;;;;;;;;;;;15.00;99.90;;;;;;2079724;28;1229;-56
2021/11/01 03:27:04;;;;;;;;;;;15.00;99.90;;;;;;2053637;28;863;-59
2021/11/01 03:28:23;;;;;;;;;;;15.00;99.90;;;;;;2070081;28;1565;-60
2021/11/01 03:29:43;;;;;;;;;;;15.00;99.90;;;;;;2067911;28;1174;-60
2021/11/01 03:31:03;;;;;;;;;;;15.00;99.90;;;;;;2062105;28;723;-59
2021/11/01 03:32:24;;;;;;;;;;;15.00;99.90;;;;;;2070479;28;742;-60
2021/11/01 03:33:43;;;;;;;;;;;15.00;99.90;;;;;;2073706;28;717;-60
2021/11/01 03:35:02;;;;;;;;;;;15.00;99.90;;;;;;2065029;28;769;-60
2021/11/01 03:36:22;;;;;;;;;;;15.00;99.90;;;;;;2070143;28;790;-60
2021/11/01 03:37:42;;;;;;;;;;;15.00;99.90;;;;;;2063742;28;960;-59
2021/11/01 03:39:03;;;;;;;;;;;15.00;99.90;;;;;;2061670;28;1001;-60
2021/11/01 03:40:22;;;;;;;;;;;15.00;99.90;;;;;;2069190;28;1910;-60
2021/11/01 03:41:42;;;;;;;;;;;15.00;99.90;;;;;;2073588;28;590;-60
2021/11/01 03:43:04;;;;;;;;;;;15.00;99.90;;;;;;2064951;28;654;-60
2021/11/01 03:44:29;;;;;;;;;;;15.00;99.90;;;;;;2068688;28;666;-59
2021/11/01 03:45:48;;;;;;;;;;;15.00;99.90;;;;;;2064943;28;617;-60
2021/11/01 03:47:07;;;;;;;;;;;15.00;99.90;;;;;;2068862;28;672;-59
2021/11/01 03:48:27;;;;;;;;;;;15.00;99.90;;;;;;2060079;28;1661;-60
2021/11/01 03:49:57;;;;;;;;;;;15.00;99.90;;;;;;2051252;28;748;-61
2021/11/01 03:51:38;;;;;;;;;;;15.00;99.90;;;;;;2055035;28;650;-60
2021/11/01 03:52:56;;;;;;;;;;;15.00;99.90;;;;;;2065136;28;653;-60
2021/11/01 03:54:18;;;;;;;;;;;15.00;99.90;;;;;;2070421;28;1613;-61
2021/11/01 03:55:37;;;;;;;;;;;15.00;99.90;;;;;;2078545;28;870;-58
2021/11/01 03:56:58;;;;;;;;;;;15.00;99.90;;;;;;2065201;28;898;-59
2021/11/01 03:58:17;;;;;;;;;;;15.00;99.90;;;;;;2063047;28;1537;-60
2021/11/01 03:59:37;;;;;;;;;;;15.00;99.90;;;;;;2067443;28;1894;-60
2021/11/01 04:00:56;;;;;;;;;;;15.00;99.90;;;;;;2061779;28;634;-60
2021/11/01 04:02:16;;;;;;;;;;;15.00;99.90;;;;;;2064269;28;622;-60
2021/11/01 04:03:36;;;;;;;;;;;15.00;99.90;;;;;;2063533;28;1351;-60
2021/11/01 04:04:55;;;;;;;;;;;15.00;99.90;;;;;;2056588;28;650;-59
2021/11/01 04:06:17;;;;;;;;;;;15.00;99.90;;;;;;2061783;28;626;-59
2021/11/01 04:07:37;;;;;;;;;;;15.00;99.90;;;;;;2065223;28;624;-56
2021/11/01 04:08:56;;;;;;;;;;;15.00;99.90;;;;;;2073259;28;1358;-59
2021/11/01 04:10:16;;;;;;;;;;;15.00;99.90;;;;;;2064816;28;594;-59
2021/11/01 04:11:39;;;;;;;;;;;15.00;99.90;;;;;;2069832;28;621;-60
2021/11/01 04:12:58;;;;;;;;;;;15.00;99.90;;;;;;2064768;28;611;-60
2021/11/01 04:14:27;;;;;;;;;;;15.00;99.90;;;;;;2070018;28;618;-58
2021/11/01 04:15:52;;;;;;;;;;;15.00;99.90;;;;;;2064364;28;783;-59
2021/11/01 04:17:20;;;;;;;;;;;15.00;99.90;;;;;;2072035;28;665;-58
2021/11/01 04:18:54;;;;;;;;;;;15.00;99.90;;;;;;2063972;28;1467;-60
2021/11/01 04:21:36;;;;;;;;;;;15.00;99.90;;;;;;2071330;28;1339;-58
2021/11/01 04:23:02;;;;;;;;;;;15.00;99.90;;;;;;2065211;28;606;-57
2021/11/01 04:24:23;;;;;;;;;;;15.00;99.90;;;;;;2064984;28;630;-59
2021/11/01 04:25:42;;;;;;;;;;;15.00;99.90;;;;;;2079953;28;1151;-59
2021/11/01 04:27:02;;;;;;;;;;;15.00;99.90;;;;;;2067841;28;882;-59
2021/11/01 04:28:22;;;;;;;;;;;14.90;99.90;;;;;;2057835;28;1538;-58
2021/11/01 04:29:41;;;;;;;;;;;15.00;99.90;;;;;;2053385;28;599;-57
2021/11/01 04:31:13;;;;;;;;;;;15.00;99.90;;;;;;2061725;28;634;-59
2021/11/01 04:32:39;;;;;;;;;;;15.00;99.90;;;;;;2064846;28;794;-59
2021/11/01 04:34:03;;;;;;;;;;;15.00;99.90;;;;;;2064956;28;684;-56
2021/11/01 04:36:41;;;;;;;;;;;15.00;99.90;;;;;;2064187;28;678;-57
2021/11/01 04:38:08;;;;;;;;;;;15.00;99.90;;;;;;2071370;28;1405;-59
2021/11/01 04:53:49;;;;;;;;;;;14.90;99.90;;;;;;2081378;28;646;-58
2021/11/01 04:55:09;;;;;;;;;;;14.90;99.90;;;;;;2077088;28;981;-57
2021/11/01 04:56:29;;;;;;;;;;;14.90;99.90;;;;;;2074106;28;1238;-59
2021/11/01 04:57:48;;;;;;;;;;;14.90;99.90;;;;;;2071959;28;673;-59
2021/11/01 04:59:09;;;;;;;;;;;14.90;99.90;;;;;;2059398;28;1209;-58
2021/11/01 05:00:28;;;;;;;;;;;15.00;99.90;;;;;;2053123;28;1906;-59
2021/11/01 05:01:51;;;;;;;;;;;14.90;99.90;;;;;;2061474;28;654;-57
2021/11/01 05:04:43;;;;;;;;;;;14.90;99.90;;;;;;2062737;28;651;-57
2021/11/01 05:06:02;;;;;;;;;;;14.90;99.90;;;;;;2056064;28;764;-56
2021/11/01 05:07:23;;;;;;;;;;;14.90;99.90;;;;;;2060765;28;1651;-59
2021/11/01 05:08:46;;;;;;;;;;;14.90;99.90;;;;;;2064757;28;1675;-59
2021/11/01 05:10:12;;;;;;;;;;;14.90;99.90;;;;;;2064819;28;699;-59
2021/11/01 05:11:40;;;;;;;;;;;14.90;99.90;;;;;;2064543;28;729;-58
2021/11/01 05:13:04;;;;;;;;;;;14.90;99.90;;;;;;2065098;28;726;-59
2021/11/01 05:14:35;;;;;;;;;;;14.90;99.90;;;;;;2064645;28;727;-57
2021/11/01 05:20:39;;;;;;;;;;;14.90;99.90;;;;;;2079337;28;1909;-59
2021/11/01 05:22:27;;;;;;;;;;;14.90;99.90;;;;;;2078673;28;1073;-58
2021/11/01 05:23:43;;;;;;;;;;;14.90;99.90;;;;;;2072708;28;877;-59
2021/11/01 05:25:06;;;;;;;;;;;14.90;99.90;;;;;;2071252;28;1102;-58
2021/11/01 05:27:09;;;;;;;;;;;14.90;99.90;;;;;;2059713;28;929;-59
2021/11/01 05:28:16;;;;;;;;;;;14.90;99.90;;;;;;2070247;28;1490;-59
2021/11/01 05:29:36;;;;;;;;;;;14.90;99.90;;;;;;2051577;28;1006;-59
2021/11/01 05:31:00;;;;;;;;;;;14.90;99.90;;;;;;2062168;28;865;-58
2021/11/01 05:32:25;;;;;;;;;;;14.90;99.90;;;;;;2072231;28;917;-58
2021/11/01 05:35:09;;;;;;;;;;;14.90;99.90;;;;;;2067952;28;856;-59
2021/11/01 05:36:29;;;;;;;;;;;14.90;99.90;;;;;;2064370;28;954;-59
2021/11/01 05:37:48;;;;;;;;;;;14.90;99.90;;;;;;2059088;28;1028;-59
2021/11/01 05:39:07;;;;;;;;;;;14.90;99.90;;;;;;2057765;28;1238;-59
2021/11/01 05:40:27;;;;;;;;;;;14.90;99.90;;;;;;2064505;28;1930;-63
2021/11/01 05:41:46;;;;;;;;;;;14.90;99.90;;;;;;2057679;28;1219;-59
2021/11/01 05:43:05;;;;;;;;;;;14.90;99.90;;;;;;2061976;28;1236;-56
2021/11/01 05:44:24;;;;;;;;;;;14.90;99.90;;;;;;2062262;28;1461;-59
2021/11/01 05:45:44;;;;;;;;;;;14.90;99.90;;;;;;2062677;28;1282;-58
2021/11/01 05:47:05;;;;;;;;;;;14.90;99.90;;;;;;2065421;28;1465;-59
2021/11/01 05:48:25;;;;;;;;;;;14.90;99.90;;;;;;2070593;28;1533;-58
2021/11/01 05:49:44;;;;;;;;;;;14.90;99.90;;;;;;2066360;28;1272;-60
2021/11/01 05:51:06;;;;;;;;;;;14.90;99.90;;;;;;2060559;28;1358;-59
2021/11/01 05:52:28;;;;;;;;;;;15.00;99.90;;;;;;2062851;28;1138;-59
2021/11/01 05:53:52;;;;;;;;;;;15.00;99.90;;;;;;2068624;28;1203;-58
2021/11/01 05:55:25;;;;;;;;;;;15.10;99.90;;;;;;2061492;28;1112;-59
2021/11/01 05:56:51;;;;;;;;;;;15.10;99.90;;;;;;2069211;28;1263;-59
2021/11/01 05:58:35;;;;;;;;;;;15.10;99.90;;;;;;2070164;28;1478;-59
2021/11/01 06:03:17;;;;;;;;;;;15.30;99.90;;;;;;2070544;28;1274;-60
2021/11/01 06:08:23;;;;;;;;;;;15.50;99.90;;;;;;2041231;28;1320;-59
2021/11/01 06:10:06;;;;;;;;;;;15.60;99.90;;;;;;2043075;28;1350;-58
2021/11/01 06:14:25;;;;;;;;;;;15.70;99.90;;;;;;2071967;28;1271;-56
2021/11/01 06:15:47;;;;;;;;;;;15.80;99.90;;;;;;2071840;28;1311;-59
2021/11/01 06:17:06;;;;;;;;;;;15.90;99.90;;;;;;2070794;28;1607;-59
2021/11/01 06:18:35;;;;;;;;;;;15.90;99.90;;;;;;2062291;28;1531;-55
2021/11/01 06:19:55;;;;;;;;;;;16.00;99.90;;;;;;2069489;28;2001;-59
2021/11/01 06:21:14;;;;;;;;;;;16.10;99.90;;;;;;2071924;28;1328;-56
2021/11/01 06:22:33;;;;;;;;;;;16.10;99.90;;;;;;2072360;28;1363;-58
2021/11/01 06:23:55;;;;;;;;;;;16.20;99.90;;;;;;2073348;28;1138;-59
2021/11/01 06:25:16;;;;;;;;;;;16.20;99.90;;;;;;2073791;28;1153;-59
2021/11/01 06:26:35;;;;;;;;;;;16.20;99.90;;;;;;2064048;28;1237;-60
2021/11/01 06:27:55;;;;;;;;;;;16.20;99.90;;;;;;2069723;28;1420;-61
2021/11/01 06:29:18;;;;;;;;;;;16.30;99.90;;;;;;2071767;28;1400;-58
2021/11/01 06:30:42;;;;;;;;;;;16.30;99.90;;;;;;2072292;28;1349;-59
2021/11/01 06:32:13;;;;;;;;;;;16.30;99.90;;;;;;2062121;28;1635;-59
2021/11/01 06:42:37;;;;;;;;;;;16.20;99.90;;;;;;2071220;28;1373;-58
2021/11/01 06:50:17;;;;;;;;;;;16.20;99.90;;;;;;2070978;28;1191;-58
2021/11/01 06:54:52;;;;;;;;;;;16.10;99.90;;;;;;2069944;28;1370;-58
2021/11/01 07:14:27;;;;;;;;;;;15.90;99.90;;;;;;2069405;28;953;-60
2021/11/01 07:15:52;;;;;;;;;;;15.90;99.90;;;;;;2063482;28;1046;-67
2021/11/01 07:17:20;;;;;;;;;;;16.00;99.90;;;;;;2068986;28;993;-58
2021/11/01 07:18:48;;;;;;;;;;;16.00;99.90;;;;;;2071026;28;1462;-59
2021/11/01 07:25:44;;;;;;;;;;;16.00;99.90;;;;;;2056224;28;1063;-59
2021/11/01 08:22:43;;;;;;;;;;;15.60;99.90;;;;;;2070729;28;1305;-58
2021/11/01 08:34:04;;;;;;;;;;;15.60;99.90;;;;;;2073425;28;1332;-58
2021/11/01 08:37:03;;;;;;;;;;;15.50;99.90;;;;;;2071140;28;1378;-59
2021/11/01 08:42:54;;;;;;;;;;;15.50;99.90;;;;;;2063191;28;1244;-57
2021/11/01 08:50:29;;;;;;;;;;;15.60;99.90;;;;;;2072624;28;1242;-59
2021/11/01 09:03:37;;;;;;;;;;;15.50;99.90;;;;;;2077020;28;1221;-59
2021/11/01 09:06:48;;;;;;;;;;;15.50;99.90;;;;;;2072499;28;1318;-57
2021/11/01 09:18:47;;;;;;;;;;;15.50;99.90;;;;;;2072847;28;1855;-58
2021/11/01 09:25:54;;;;;;;;;;;15.40;99.90;;;;;;2079381;28;1021;-58
2021/11/01 09:27:18;;;;;;;;;;;15.40;99.90;;;;;;2079953;28;618;-57
2021/11/01 09:38:18;;;;;;;;;;;15.40;99.90;;;;;;2031334;29;1343;-59
2021/11/01 09:40:54;;;;;;;;;;;15.40;99.90;;;;;;2070654;28;862;-57
2021/11/01 09:41:22;;;;;;;;;;;15.40;99.90;;;;;;2062791;28;1415;-58
2021/11/01 09:42:52;;;;;;;;;;;15.40;99.90;;;;;;2064695;28;918;-58
2021/11/01 09:44:14;;;;;;;;;;;15.40;99.90;;;;;;2070209;28;881;-59
2021/11/01 09:45:36;;;;;;;;;;;15.40;99.90;;;;;;2074650;28;946;-59
2021/11/01 09:47:00;;;;;;;;;;;15.40;99.90;;;;;;2072959;28;825;-59
2021/11/01 09:48:19;;;;;;;;;;;15.40;99.90;;;;;;2064999;28;1514;-58
2021/11/01 09:49:38;;;;;;;;;;;15.40;99.90;;;;;;2062196;28;958;-58
2021/11/01 09:50:58;;;;;;;;;;;15.40;99.90;;;;;;2067322;28;1154;-59
2021/11/01 09:52:17;;;;;;;;;;;15.40;99.90;;;;;;2074112;28;997;-57
2021/11/01 09:53:45;;;;;;;;;;;15.40;99.90;;;;;;2065181;28;878;-58
2021/11/01 09:55:25;;;;;;;;;;;15.40;99.90;;;;;;2069499;28;1036;-59
2021/11/01 09:56:57;;;;;;;;;;;15.40;99.90;;;;;;2061754;28;1101;-59
2021/11/01 09:59:59;;;;;;;;;;;15.40;99.90;;;;;;2071985;28;1977;-58
2021/11/01 10:01:22;;;;;;;;;;;15.40;99.90;;;;;;2064495;28;1358;-59
2021/11/01 10:02:46;;;;;;;;;;;15.40;99.90;;;;;;2075736;28;1029;-58
2021/11/01 10:04:13;;;;;;;;;;;15.40;99.90;;;;;;2073220;28;920;-58
2021/11/01 10:05:35;;;;;;;;;;;15.40;99.90;;;;;;2073807;28;896;-57
2021/11/01 10:08:45;;;;;;;;;;;15.40;99.90;;;;;;2076624;28;1522;-58
2021/11/01 10:10:06;;;;;;;;;;;15.40;99.90;;;;;;2064212;28;977;-58
2021/11/01 10:11:26;;;;;;;;;;;15.40;99.90;;;;;;2054642;28;1201;-58
2021/11/01 10:12:47;;;;;;;;;;;15.40;99.90;;;;;;2067357;28;949;-58
2021/11/01 10:14:07;;;;;;;;;;;15.40;99.90;;;;;;2057074;28;951;-56
2021/11/01 10:18:49;;;;;;;;;;;15.40;99.90;;;;;;2070062;28;1439;-56
2021/11/01 10:20:09;;;;;;;;;;;15.40;99.90;;;;;;2073172;28;1967;-60
2021/11/01 10:21:29;;;;;;;;;;;15.40;99.90;;;;;;2072705;28;958;-59
2021/11/01 10:22:49;;;;;;;;;;;15.30;99.90;;;;;;2063992;28;1082;-59
2021/11/01 10:24:08;;;;;;;;;;;15.30;99.90;;;;;;2067597;28;1415;-59
2021/11/01 10:25:27;;;;;;;;;;;15.30;99.90;;;;;;2068371;28;1443;-58
2021/11/01 10:26:46;;;;;;;;;;;15.30;99.90;;;;;;2072873;28;997;-58
2021/11/01 10:28:06;;;;;;;;;;;15.30;99.90;;;;;;2063657;28;1419;-59
2021/11/01 10:29:25;;;;;;;;;;;15.30;99.90;;;;;;2065607;28;966;-59
2021/11/01 10:30:44;;;;;;;;;;;15.30;99.90;;;;;;2065743;28;1680;-58
2021/11/01 10:32:04;;;;;;;;;;;15.30;99.90;;;;;;2076895;28;1200;-59
2021/11/01 10:33:24;;;;;;;;;;;15.30;99.90;;;;;;2053200;28;895;-59
2021/11/01 10:34:43;;;;;;;;;;;15.30;99.90;;;;;;2066862;28;931;-60
2021/11/01 10:36:03;;;;;;;;;;;15.30;99.90;;;;;;2064235;28;951;-59
2021/11/01 10:37:22;;;;;;;;;;;15.30;99.90;;;;;;2066524;28;910;-58
2021/11/01 10:38:44;;;;;;;;;;;15.30;99.90;;;;;;2074133;28;1855;-59
2021/11/01 10:40:07;;;;;;;;;;;15.30;99.90;;;;;;2054564;28;1914;-57
2021/11/01 10:41:37;;;;;;;;;;;15.30;99.90;;;;;;2066014;28;878;-58
2021/11/01 10:43:20;;;;;;;;;;;15.30;99.90;;;;;;2064393;28;1290;-59
2021/11/01 11:10:55;;;;;;;;;;;15.30;99.90;;;;;;2066353;28;1146;-59
2021/11/01 11:12:34;;;;;;;;;;;15.30;99.90;;;;;;2072301;28;1120;-58
2021/11/01 11:14:09;;;;;;;;;;;15.20;99.90;;;;;;2064717;28;889;-59
2021/11/01 11:15:31;;;;;;;;;;;15.20;99.90;;;;;;2074462;28;967;-59
2021/11/01 11:19:01;;;;;;;;;;;15.20;99.90;;;;;;2066255;28;1522;-59
2021/11/01 11:21:42;;;;;;;;;;;15.20;99.90;;;;;;2063003;28;1118;-59
2021/11/01 11:32:48;;;;;;;;;;;15.30;99.90;;;;;;2073392;28;1299;-58
2021/11/01 11:37:47;;;;;;;;;;;15.30;99.90;;;;;;2073984;28;1342;-59
2021/11/01 11:39:52;;;;;;;;;;;15.20;99.90;;;;;;2064294;28;1292;-59
2021/11/01 11:47:55;;;;;;;;;;;15.20;99.90;;;;;;2073023;28;1396;-59
2021/11/01 11:49:16;;;;;;;;;;;15.20;99.90;;;;;;2076438;28;1130;-58
2021/11/01 11:50:35;;;;;;;;;;;15.20;99.90;;;;;;2071518;28;1157;-59
2021/11/01 11:51:57;;;;;;;;;;;15.20;99.90;;;;;;2061867;28;1177;-59
2021/11/01 11:53:17;;;;;;;;;;;15.20;99.90;;;;;;2072715;28;1366;-58
2021/11/01 11:54:46;;;;;;;;;;;15.20;99.90;;;;;;2074605;28;1076;-59
2021/11/01 11:56:08;;;;;;;;;;;15.20;99.90;;;;;;2072174;28;736;-59
2021/11/01 11:57:29;;;;;;;;;;;15.20;99.90;;;;;;2078434;28;745;-54
2021/11/01 11:58:51;;;;;;;;;;;15.20;99.90;;;;;;2072666;28;1458;-56
2021/11/01 12:00:12;;;;;;;;;;;15.20;99.90;;;;;;2066676;28;1960;-54
2021/11/01 12:01:36;;;;;;;;;;;15.20;99.90;;;;;;2050534;28;1018;-53
2021/11/01 12:02:55;;;;;;;;;;;15.10;99.90;;;;;;2062154;28;1319;-53
2021/11/01 12:04:22;;;;;;;;;;;15.10;99.90;;;;;;2078171;28;1240;-54
2021/11/01 12:05:50;;;;;;;;;;;15.10;99.90;;;;;;2072944;28;654;-56
2021/11/01 12:07:13;;;;;;;;;;;15.10;99.90;;;;;;2065212;28;1544;-52
2021/11/01 12:08:36;;;;;;;;;;;15.10;99.90;;;;;;2071434;28;1479;-53
2021/11/01 12:09:59;;;;;;;;;;;15.10;99.90;;;;;;2058711;28;1299;-55
2021/11/01 12:17:12;;;;;;;;;;;15.10;99.90;;;;;;2075067;28;1454;-53
2021/11/01 12:18:31;;;;;;;;;;;15.10;99.90;;;;;;2072430;28;1738;-52
2021/11/01 12:19:51;;;;;;;;;;;15.10;99.90;;;;;;2072275;28;1039;-53
2021/11/01 12:21:10;;;;;;;;;;;15.10;99.90;;;;;;2063290;28;1624;-55
2021/11/01 12:22:31;;;;;;;;;;;15.10;99.90;;;;;;2061741;28;1649;-55
2021/11/01 12:23:55;;;;;;;;;;;15.10;99.90;;;;;;2064884;28;685;-52
2021/11/01 12:25:16;;;;;;;;;;;15.10;99.90;;;;;;2065013;28;709;-54
2021/11/01 12:26:38;;;;;;;;;;;15.10;99.90;;;;;;2064893;28;685;-52
2021/11/01 12:28:00;;;;;;;;;;;15.10;99.90;;;;;;2064221;28;1352;-53